Terminal Aerodrome Forecast
Issued by NWS Grand Rapids, MI

Home | Current Version | Previous Version | Text Only | Print | Product List | Glossary On
Versions: 1 2 3 4 5 6 7 8 9 10 11 12 13 14 15 16 17 18 19 20 21
000
FTUS43 KGRR 301619 AAD
TAFGRR
TAF AMD
KGRR 301619Z 3016/0112 05012KT P6SM OVC008
     FM301800 06011KT P6SM -RA OVC007
      TEMPO 3018/3021 4SM -RA BR
     FM302100 07010KT 2SM -RA BR OVC007
     FM302300 08010KT 1 1/2SM RA BR OVC004
     FM010300 07010KT P6SM OVC004=

USA.gov is the U.S. government's official web portal to all federal, state and local government web resources and services.